sensor_id;sensor_type;location;lat;lon;timestamp;P1;durP1;ratioP1;P2;durP2;ratioP2
33716;SDS011;20046;50.746;7.072;2022-10-24T00:00:00;18.98;;;5.15;;
33716;SDS011;20046;50.746;7.072;2022-10-24T00:02:25;14.20;;;4.43;;
33716;SDS011;20046;50.746;7.072;2022-10-24T00:04:51;15.00;;;4.82;;
33716;SDS011;20046;50.746;7.072;2022-10-24T00:07:17;13.82;;;4.82;;
33716;SDS011;20046;50.746;7.072;2022-10-24T00:09:42;17.98;;;4.38;;
33716;SDS011;20046;50.746;7.072;2022-10-24T00:12:08;17.33;;;5.47;;
33716;SDS011;20046;50.746;7.072;2022-10-24T00:14:34;14.10;;;4.82;;
33716;SDS011;20046;50.746;7.072;2022-10-24T00:17:01;16.92;;;4.05;;
33716;SDS011;20046;50.746;7.072;2022-10-24T00:19:27;12.07;;;4.57;;
33716;SDS011;20046;50.746;7.072;2022-10-24T00:21:52;17.27;;;4.78;;
33716;SDS011;20046;50.746;7.072;2022-10-24T00:24:18;18.58;;;4.70;;
33716;SDS011;20046;50.746;7.072;2022-10-24T00:26:44;16.55;;;4.25;;
33716;SDS011;20046;50.746;7.072;2022-10-24T00:29:10;19.15;;;5.18;;
33716;SDS011;20046;50.746;7.072;2022-10-24T00:31:36;16.40;;;5.50;;
33716;SDS011;20046;50.746;7.072;2022-10-24T00:34:02;17.13;;;5.05;;
33716;SDS011;20046;50.746;7.072;2022-10-24T00:36:28;17.98;;;4.53;;
33716;SDS011;20046;50.746;7.072;2022-10-24T00:38:54;19.90;;;4.90;;
33716;SDS011;20046;50.746;7.072;2022-10-24T00:41:24;13.65;;;4.32;;
33716;SDS011;20046;50.746;7.072;2022-10-24T00:47:13;12.00;;;4.20;;
33716;SDS011;20046;50.746;7.072;2022-10-24T00:49:49;17.42;;;4.78;;
33716;SDS011;20046;50.746;7.072;2022-10-24T00:52:32;15.70;;;4.45;;
33716;SDS011;20046;50.746;7.072;2022-10-24T00:55:03;16.63;;;4.25;;
33716;SDS011;20046;50.746;7.072;2022-10-24T01:00:08;17.10;;;4.95;;
33716;SDS011;20046;50.746;7.072;2022-10-24T01:02:39;16.35;;;4.70;;
33716;SDS011;20046;50.746;7.072;2022-10-24T01:05:06;20.52;;;4.72;;
33716;SDS011;20046;50.746;7.072;2022-10-24T01:10:31;14.20;;;5.05;;
33716;SDS011;20046;50.746;7.072;2022-10-24T01:16:04;13.63;;;4.57;;
33716;SDS011;20046;50.746;7.072;2022-10-24T01:18:39;13.57;;;4.05;;
33716;SDS011;20046;50.746;7.072;2022-10-24T01:23:59;16.95;;;4.97;;
33716;SDS011;20046;50.746;7.072;2022-10-24T01:26:43;15.85;;;4.97;;
33716;SDS011;20046;50.746;7.072;2022-10-24T01:32:13;16.73;;;4.05;;
33716;SDS011;20046;50.746;7.072;2022-10-24T01:37:43;19.10;;;3.95;;
33716;SDS011;20046;50.746;7.072;2022-10-24T01:40:18;19.60;;;4.75;;
33716;SDS011;20046;50.746;7.072;2022-10-24T01:42:48;14.20;;;4.38;;
33716;SDS011;20046;50.746;7.072;2022-10-24T01:45:20;9.55;;;3.97;;
33716;SDS011;20046;50.746;7.072;2022-10-24T01:47:51;28.63;;;5.27;;
33716;SDS011;20046;50.746;7.072;2022-10-24T01:50:20;12.90;;;4.15;;
33716;SDS011;20046;50.746;7.072;2022-10-24T01:52:47;14.90;;;4.20;;
33716;SDS011;20046;50.746;7.072;2022-10-24T01:55:15;15.50;;;4.35;;
33716;SDS011;20046;50.746;7.072;2022-10-24T01:57:40;13.98;;;3.72;;
33716;SDS011;20046;50.746;7.072;2022-10-24T02:00:07;13.10;;;4.05;;
33716;SDS011;20046;50.746;7.072;2022-10-24T02:02:44;21.52;;;4.22;;
33716;SDS011;20046;50.746;7.072;2022-10-24T02:05:15;17.13;;;4.10;;
33716;SDS011;20046;50.746;7.072;2022-10-24T02:07:50;11.57;;;3.83;;
33716;SDS011;20046;50.746;7.072;2022-10-24T02:10:30;9.98;;;3.60;;
33716;SDS011;20046;50.746;7.072;2022-10-24T02:13:01;12.80;;;3.78;;
33716;SDS011;20046;50.746;7.072;2022-10-24T02:15:35;15.60;;;4.57;;
33716;SDS011;20046;50.746;7.072;2022-10-24T02:18:06;26.60;;;5.32;;
33716;SDS011;20046;50.746;7.072;2022-10-24T02:20:38;21.33;;;3.72;;
33716;SDS011;20046;50.746;7.072;2022-10-24T02:25:51;12.60;;;3.47;;
33716;SDS011;20046;50.746;7.072;2022-10-24T02:28:22;13.90;;;3.78;;
33716;SDS011;20046;50.746;7.072;2022-10-24T02:30:51;18.38;;;4.43;;
33716;SDS011;20046;50.746;7.072;2022-10-24T02:33:21;12.25;;;3.65;;
33716;SDS011;20046;50.746;7.072;2022-10-24T02:35:47;8.90;;;3.50;;
33716;SDS011;20046;50.746;7.072;2022-10-24T02:40:46;12.52;;;3.38;;
33716;SDS011;20046;50.746;7.072;2022-10-24T02:43:14;13.40;;;3.30;;
33716;SDS011;20046;50.746;7.072;2022-10-24T02:45:41;13.73;;;3.60;;
33716;SDS011;20046;50.746;7.072;2022-10-24T02:48:08;14.73;;;3.90;;
33716;SDS011;20046;50.746;7.072;2022-10-24T02:50:38;10.10;;;3.75;;
33716;SDS011;20046;50.746;7.072;2022-10-24T02:53:05;10.20;;;3.30;;
33716;SDS011;20046;50.746;7.072;2022-10-24T02:55:33;17.20;;;4.03;;
33716;SDS011;20046;50.746;7.072;2022-10-24T02:57:59;13.35;;;3.50;;
33716;SDS011;20046;50.746;7.072;2022-10-24T03:00:25;13.20;;;3.50;;
33716;SDS011;20046;50.746;7.072;2022-10-24T03:02:50;17.27;;;4.07;;
33716;SDS011;20046;50.746;7.072;2022-10-24T03:05:16;17.60;;;3.03;;
33716;SDS011;20046;50.746;7.072;2022-10-24T03:07:41;15.88;;;4.25;;
33716;SDS011;20046;50.746;7.072;2022-10-24T03:10:07;14.73;;;3.90;;
33716;SDS011;20046;50.746;7.072;2022-10-24T03:12:33;13.55;;;3.80;;
33716;SDS011;20046;50.746;7.072;2022-10-24T03:14:58;11.38;;;3.88;;
33716;SDS011;20046;50.746;7.072;2022-10-24T03:17:24;20.35;;;3.95;;
33716;SDS011;20046;50.746;7.072;2022-10-24T03:19:50;14.73;;;3.80;;
33716;SDS011;20046;50.746;7.072;2022-10-24T03:22:15;11.07;;;3.42;;
33716;SDS011;20046;50.746;7.072;2022-10-24T03:24:41;13.35;;;4.38;;
33716;SDS011;20046;50.746;7.072;2022-10-24T03:27:06;10.43;;;4.05;;
33716;SDS011;20046;50.746;7.072;2022-10-24T03:29:32;21.02;;;3.95;;
33716;SDS011;20046;50.746;7.072;2022-10-24T03:31:57;16.55;;;4.03;;
33716;SDS011;20046;50.746;7.072;2022-10-24T03:34:23;21.42;;;4.35;;
33716;SDS011;20046;50.746;7.072;2022-10-24T03:36:49;14.40;;;3.55;;
33716;SDS011;20046;50.746;7.072;2022-10-24T03:39:14;14.27;;;3.55;;
33716;SDS011;20046;50.746;7.072;2022-10-24T03:41:40;14.82;;;3.85;;
33716;SDS011;20046;50.746;7.072;2022-10-24T03:44:05;9.82;;;3.55;;
33716;SDS011;20046;50.746;7.072;2022-10-24T03:46:31;16.00;;;4.22;;
33716;SDS011;20046;50.746;7.072;2022-10-24T03:48:56;13.35;;;3.58;;
33716;SDS011;20046;50.746;7.072;2022-10-24T03:51:22;8.95;;;3.42;;
33716;SDS011;20046;50.746;7.072;2022-10-24T03:53:48;10.00;;;3.10;;
33716;SDS011;20046;50.746;7.072;2022-10-24T03:56:13;10.80;;;3.70;;
33716;SDS011;20046;50.746;7.072;2022-10-24T03:58:39;14.85;;;3.42;;
33716;SDS011;20046;50.746;7.072;2022-10-24T04:01:05;15.38;;;3.80;;
33716;SDS011;20046;50.746;7.072;2022-10-24T04:03:30;14.77;;;4.47;;
33716;SDS011;20046;50.746;7.072;2022-10-24T04:05:56;11.90;;;3.95;;
33716;SDS011;20046;50.746;7.072;2022-10-24T04:08:21;15.15;;;4.07;;
33716;SDS011;20046;50.746;7.072;2022-10-24T04:10:47;16.38;;;4.07;;
33716;SDS011;20046;50.746;7.072;2022-10-24T04:13:13;22.10;;;4.78;;
33716;SDS011;20046;50.746;7.072;2022-10-24T04:15:39;11.77;;;3.90;;
33716;SDS011;20046;50.746;7.072;2022-10-24T04:18:05;12.02;;;4.00;;
33716;SDS011;20046;50.746;7.072;2022-10-24T04:20:32;17.98;;;3.95;;
33716;SDS011;20046;50.746;7.072;2022-10-24T04:22:58;14.13;;;4.20;;
33716;SDS011;20046;50.746;7.072;2022-10-24T04:25:23;27.75;;;5.05;;
33716;SDS011;20046;50.746;7.072;2022-10-24T04:27:49;12.10;;;3.67;;
33716;SDS011;20046;50.746;7.072;2022-10-24T04:30:14;13.60;;;4.45;;
33716;SDS011;20046;50.746;7.072;2022-10-24T04:32:40;16.55;;;3.35;;
33716;SDS011;20046;50.746;7.072;2022-10-24T04:35:06;9.38;;;3.50;;
33716;SDS011;20046;50.746;7.072;2022-10-24T04:37:32;14.82;;;4.03;;
33716;SDS011;20046;50.746;7.072;2022-10-24T04:39:57;14.95;;;3.95;;
33716;SDS011;20046;50.746;7.072;2022-10-24T04:42:23;12.57;;;4.20;;
33716;SDS011;20046;50.746;7.072;2022-10-24T04:44:49;13.48;;;3.92;;
33716;SDS011;20046;50.746;7.072;2022-10-24T04:47:15;15.60;;;4.03;;
33716;SDS011;20046;50.746;7.072;2022-10-24T04:49:41;18.30;;;4.43;;
33716;SDS011;20046;50.746;7.072;2022-10-24T04:52:07;17.58;;;3.95;;
33716;SDS011;20046;50.746;7.072;2022-10-24T04:54:33;12.85;;;4.03;;
33716;SDS011;20046;50.746;7.072;2022-10-24T04:56:58;12.63;;;3.67;;
33716;SDS011;20046;50.746;7.072;2022-10-24T04:59:24;10.10;;;3.83;;
33716;SDS011;20046;50.746;7.072;2022-10-24T05:01:49;14.35;;;3.90;;
33716;SDS011;20046;50.746;7.072;2022-10-24T05:04:15;12.73;;;3.22;;
33716;SDS011;20046;50.746;7.072;2022-10-24T05:06:41;15.38;;;2.90;;
33716;SDS011;20046;50.746;7.072;2022-10-24T05:09:06;10.05;;;3.22;;
33716;SDS011;20046;50.746;7.072;2022-10-24T05:11:32;17.27;;;3.50;;
33716;SDS011;20046;50.746;7.072;2022-10-24T05:13:58;22.77;;;4.07;;
33716;SDS011;20046;50.746;7.072;2022-10-24T05:16:23;17.85;;;3.42;;
33716;SDS011;20046;50.746;7.072;2022-10-24T05:18:49;13.25;;;3.45;;
33716;SDS011;20046;50.746;7.072;2022-10-24T05:21:15;13.40;;;3.17;;
33716;SDS011;20046;50.746;7.072;2022-10-24T05:23:40;13.13;;;3.55;;
33716;SDS011;20046;50.746;7.072;2022-10-24T05:26:06;14.05;;;3.05;;
33716;SDS011;20046;50.746;7.072;2022-10-24T05:28:32;13.32;;;3.30;;
33716;SDS011;20046;50.746;7.072;2022-10-24T05:30:58;9.85;;;2.40;;
33716;SDS011;20046;50.746;7.072;2022-10-24T05:33:23;9.88;;;3.90;;
33716;SDS011;20046;50.746;7.072;2022-10-24T05:35:49;11.85;;;3.10;;
33716;SDS011;20046;50.746;7.072;2022-10-24T05:38:16;11.32;;;2.92;;
33716;SDS011;20046;50.746;7.072;2022-10-24T05:40:42;8.55;;;2.25;;
33716;SDS011;20046;50.746;7.072;2022-10-24T05:43:07;13.68;;;2.78;;
33716;SDS011;20046;50.746;7.072;2022-10-24T05:45:33;9.85;;;2.83;;
33716;SDS011;20046;50.746;7.072;2022-10-24T05:47:59;5.68;;;2.00;;
33716;SDS011;20046;50.746;7.072;2022-10-24T05:50:25;12.13;;;2.67;;
33716;SDS011;20046;50.746;7.072;2022-10-24T05:52:51;6.85;;;2.22;;
33716;SDS011;20046;50.746;7.072;2022-10-24T05:55:17;11.05;;;2.70;;
33716;SDS011;20046;50.746;7.072;2022-10-24T05:57:43;18.35;;;2.70;;
33716;SDS011;20046;50.746;7.072;2022-10-24T06:00:10;11.25;;;3.17;;
33716;SDS011;20046;50.746;7.072;2022-10-24T06:02:38;8.30;;;2.88;;
33716;SDS011;20046;50.746;7.072;2022-10-24T06:05:04;12.80;;;2.72;;
33716;SDS011;20046;50.746;7.072;2022-10-24T06:07:31;11.68;;;3.35;;
33716;SDS011;20046;50.746;7.072;2022-10-24T06:09:56;14.10;;;3.83;;
33716;SDS011;20046;50.746;7.072;2022-10-24T06:12:22;11.93;;;2.67;;
33716;SDS011;20046;50.746;7.072;2022-10-24T06:14:48;10.15;;;2.97;;
33716;SDS011;20046;50.746;7.072;2022-10-24T06:17:13;10.23;;;3.00;;
33716;SDS011;20046;50.746;7.072;2022-10-24T06:19:39;14.55;;;2.65;;
33716;SDS011;20046;50.746;7.072;2022-10-24T06:22:05;9.48;;;2.30;;
33716;SDS011;20046;50.746;7.072;2022-10-24T06:24:36;14.85;;;3.88;;
33716;SDS011;20046;50.746;7.072;2022-10-24T06:27:02;8.85;;;2.88;;
33716;SDS011;20046;50.746;7.072;2022-10-24T06:29:29;11.45;;;3.17;;
33716;SDS011;20046;50.746;7.072;2022-10-24T06:31:54;13.75;;;2.45;;
33716;SDS011;20046;50.746;7.072;2022-10-24T06:34:20;10.13;;;2.33;;
33716;SDS011;20046;50.746;7.072;2022-10-24T06:36:46;12.02;;;2.40;;
33716;SDS011;20046;50.746;7.072;2022-10-24T06:39:11;9.55;;;2.97;;
33716;SDS011;20046;50.746;7.072;2022-10-24T06:41:37;15.07;;;2.95;;
33716;SDS011;20046;50.746;7.072;2022-10-24T06:44:03;9.90;;;2.30;;
33716;SDS011;20046;50.746;7.072;2022-10-24T06:46:29;18.58;;;3.20;;
33716;SDS011;20046;50.746;7.072;2022-10-24T06:48:54;8.30;;;2.47;;
33716;SDS011;20046;50.746;7.072;2022-10-24T06:51:20;16.92;;;3.83;;
33716;SDS011;20046;50.746;7.072;2022-10-24T06:53:46;14.02;;;2.65;;
33716;SDS011;20046;50.746;7.072;2022-10-24T06:56:12;7.78;;;2.40;;
33716;SDS011;20046;50.746;7.072;2022-10-24T06:58:38;11.40;;;2.25;;
33716;SDS011;20046;50.746;7.072;2022-10-24T07:01:09;10.05;;;2.20;;
33716;SDS011;20046;50.746;7.072;2022-10-24T07:03:36;10.20;;;2.47;;
33716;SDS011;20046;50.746;7.072;2022-10-24T07:06:06;14.63;;;2.42;;
33716;SDS011;20046;50.746;7.072;2022-10-24T07:08:33;13.93;;;2.47;;
33716;SDS011;20046;50.746;7.072;2022-10-24T07:10:58;5.25;;;1.83;;
33716;SDS011;20046;50.746;7.072;2022-10-24T07:13:24;9.82;;;1.73;;
33716;SDS011;20046;50.746;7.072;2022-10-24T07:15:50;8.55;;;1.92;;
33716;SDS011;20046;50.746;7.072;2022-10-24T07:18:18;9.48;;;2.15;;
33716;SDS011;20046;50.746;7.072;2022-10-24T07:20:44;12.13;;;1.95;;
33716;SDS011;20046;50.746;7.072;2022-10-24T07:23:10;9.07;;;2.53;;
33716;SDS011;20046;50.746;7.072;2022-10-24T07:25:38;13.40;;;2.53;;
33716;SDS011;20046;50.746;7.072;2022-10-24T07:28:05;9.68;;;1.90;;
33716;SDS011;20046;50.746;7.072;2022-10-24T07:30:31;7.65;;;1.85;;
33716;SDS011;20046;50.746;7.072;2022-10-24T07:32:57;7.63;;;2.10;;
33716;SDS011;20046;50.746;7.072;2022-10-24T07:35:23;8.15;;;1.50;;
33716;SDS011;20046;50.746;7.072;2022-10-24T07:37:49;6.60;;;1.80;;
33716;SDS011;20046;50.746;7.072;2022-10-24T07:40:16;9.80;;;2.58;;
33716;SDS011;20046;50.746;7.072;2022-10-24T07:42:41;9.15;;;1.90;;
33716;SDS011;20046;50.746;7.072;2022-10-24T07:45:07;7.28;;;1.80;;
33716;SDS011;20046;50.746;7.072;2022-10-24T07:47:34;9.20;;;2.40;;
33716;SDS011;20046;50.746;7.072;2022-10-24T07:49:59;9.65;;;2.10;;
33716;SDS011;20046;50.746;7.072;2022-10-24T07:52:25;14.35;;;5.90;;
33716;SDS011;20046;50.746;7.072;2022-10-24T07:54:54;11.45;;;3.63;;
33716;SDS011;20046;50.746;7.072;2022-10-24T07:57:20;9.13;;;3.60;;
33716;SDS011;20046;50.746;7.072;2022-10-24T07:59:46;8.73;;;1.77;;
33716;SDS011;20046;50.746;7.072;2022-10-24T08:02:12;9.98;;;3.67;;
33716;SDS011;20046;50.746;7.072;2022-10-24T08:04:38;13.63;;;3.85;;
33716;SDS011;20046;50.746;7.072;2022-10-24T08:07:05;9.98;;;2.92;;
33716;SDS011;20046;50.746;7.072;2022-10-24T08:09:41;10.95;;;2.28;;
33716;SDS011;20046;50.746;7.072;2022-10-24T08:12:08;7.18;;;1.77;;
33716;SDS011;20046;50.746;7.072;2022-10-24T08:14:35;11.50;;;1.80;;
33716;SDS011;20046;50.746;7.072;2022-10-24T08:17:02;8.02;;;1.35;;
33716;SDS011;20046;50.746;7.072;2022-10-24T08:19:28;6.43;;;1.35;;
33716;SDS011;20046;50.746;7.072;2022-10-24T08:21:54;6.07;;;1.30;;
33716;SDS011;20046;50.746;7.072;2022-10-24T08:24:20;5.78;;;1.42;;
33716;SDS011;20046;50.746;7.072;2022-10-24T08:26:46;11.05;;;1.90;;
33716;SDS011;20046;50.746;7.072;2022-10-24T08:29:12;8.65;;;1.83;;
33716;SDS011;20046;50.746;7.072;2022-10-24T08:31:39;23.73;;;2.20;;
33716;SDS011;20046;50.746;7.072;2022-10-24T08:34:05;8.45;;;2.58;;
33716;SDS011;20046;50.746;7.072;2022-10-24T08:36:32;7.32;;;1.67;;
33716;SDS011;20046;50.746;7.072;2022-10-24T08:38:59;6.43;;;1.60;;
33716;SDS011;20046;50.746;7.072;2022-10-24T08:41:35;10.98;;;1.77;;
33716;SDS011;20046;50.746;7.072;2022-10-24T08:44:26;8.23;;;1.48;;
33716;SDS011;20046;50.746;7.072;2022-10-24T08:47:00;6.43;;;1.58;;
33716;SDS011;20046;50.746;7.072;2022-10-24T08:52:30;8.02;;;1.50;;
33716;SDS011;20046;50.746;7.072;2022-10-24T08:54:57;9.10;;;1.70;;
33716;SDS011;20046;50.746;7.072;2022-10-24T08:57:27;11.23;;;1.60;;
33716;SDS011;20046;50.746;7.072;2022-10-24T08:59:57;9.30;;;2.70;;
33716;SDS011;20046;50.746;7.072;2022-10-24T09:02:30;6.03;;;1.75;;
33716;SDS011;20046;50.746;7.072;2022-10-24T09:05:00;11.43;;;2.38;;
33716;SDS011;20046;50.746;7.072;2022-10-24T09:07:46;6.25;;;1.92;;
33716;SDS011;20046;50.746;7.072;2022-10-24T09:10:22;17.15;;;1.92;;
33716;SDS011;20046;50.746;7.072;2022-10-24T09:12:59;6.65;;;1.65;;
33716;SDS011;20046;50.746;7.072;2022-10-24T09:15:25;7.30;;;1.75;;
33716;SDS011;20046;50.746;7.072;2022-10-24T09:17:54;7.30;;;1.58;;
33716;SDS011;20046;50.746;7.072;2022-10-24T09:20:25;12.52;;;1.92;;
33716;SDS011;20046;50.746;7.072;2022-10-24T09:22:59;7.65;;;1.52;;
33716;SDS011;20046;50.746;7.072;2022-10-24T09:25:27;8.82;;;1.50;;
33716;SDS011;20046;50.746;7.072;2022-10-24T09:27:56;6.95;;;1.60;;
33716;SDS011;20046;50.746;7.072;2022-10-24T09:30:25;8.25;;;1.55;;
33716;SDS011;20046;50.746;7.072;2022-10-24T09:32:52;9.60;;;1.65;;
33716;SDS011;20046;50.746;7.072;2022-10-24T09:35:20;14.02;;;2.00;;
33716;SDS011;20046;50.746;7.072;2022-10-24T09:37:48;7.55;;;1.58;;
33716;SDS011;20046;50.746;7.072;2022-10-24T09:45:18;8.98;;;1.77;;
33716;SDS011;20046;50.746;7.072;2022-10-24T09:47:54;6.43;;;1.73;;
33716;SDS011;20046;50.746;7.072;2022-10-24T09:50:22;8.40;;;1.55;;
33716;SDS011;20046;50.746;7.072;2022-10-24T09:52:49;8.50;;;1.42;;
33716;SDS011;20046;50.746;7.072;2022-10-24T09:55:17;14.65;;;2.70;;
33716;SDS011;20046;50.746;7.072;2022-10-24T09:57:45;5.93;;;1.45;;
33716;SDS011;20046;50.746;7.072;2022-10-24T10:00:25;9.13;;;1.80;;
33716;SDS011;20046;50.746;7.072;2022-10-24T10:02:57;9.15;;;1.95;;
33716;SDS011;20046;50.746;7.072;2022-10-24T10:05:49;8.10;;;1.75;;
33716;SDS011;20046;50.746;7.072;2022-10-24T10:08:39;11.45;;;2.22;;
33716;SDS011;20046;50.746;7.072;2022-10-24T10:11:06;9.32;;;1.60;;
33716;SDS011;20046;50.746;7.072;2022-10-24T10:13:48;9.50;;;1.70;;
33716;SDS011;20046;50.746;7.072;2022-10-24T10:19:03;11.02;;;2.00;;
33716;SDS011;20046;50.746;7.072;2022-10-24T10:21:56;11.55;;;2.17;;
33716;SDS011;20046;50.746;7.072;2022-10-24T10:32:59;8.88;;;1.80;;
33716;SDS011;20046;50.746;7.072;2022-10-24T10:40:44;14.98;;;2.28;;
33716;SDS011;20046;50.746;7.072;2022-10-24T10:45:45;11.05;;;1.52;;
33716;SDS011;20046;50.746;7.072;2022-10-24T10:53:46;9.82;;;2.15;;
33716;SDS011;20046;50.746;7.072;2022-10-24T10:56:24;13.02;;;1.73;;
33716;SDS011;20046;50.746;7.072;2022-10-24T11:07:34;14.43;;;2.53;;
33716;SDS011;20046;50.746;7.072;2022-10-24T11:10:23;11.18;;;2.38;;
33716;SDS011;20046;50.746;7.072;2022-10-24T11:13:04;10.15;;;1.83;;
33716;SDS011;20046;50.746;7.072;2022-10-24T11:15:39;8.60;;;2.05;;
33716;SDS011;20046;50.746;7.072;2022-10-24T11:18:13;9.38;;;2.15;;
33716;SDS011;20046;50.746;7.072;2022-10-24T11:20:47;9.63;;;1.40;;
33716;SDS011;20046;50.746;7.072;2022-10-24T11:23:28;7.95;;;1.67;;
33716;SDS011;20046;50.746;7.072;2022-10-24T11:26:05;9.40;;;1.90;;
33716;SDS011;20046;50.746;7.072;2022-10-24T11:28:39;12.60;;;1.95;;
33716;SDS011;20046;50.746;7.072;2022-10-24T11:31:13;6.55;;;1.23;;
33716;SDS011;20046;50.746;7.072;2022-10-24T11:33:48;9.43;;;1.67;;
33716;SDS011;20046;50.746;7.072;2022-10-24T11:42:20;8.68;;;1.70;;
33716;SDS011;20046;50.746;7.072;2022-10-24T11:44:57;8.07;;;1.50;;
33716;SDS011;20046;50.746;7.072;2022-10-24T11:50:26;6.00;;;1.42;;
33716;SDS011;20046;50.746;7.072;2022-10-24T11:56:10;12.80;;;2.10;;
33716;SDS011;20046;50.746;7.072;2022-10-24T11:58:49;6.65;;;1.38;;
33716;SDS011;20046;50.746;7.072;2022-10-24T12:04:05;6.32;;;1.70;;
33716;SDS011;20046;50.746;7.072;2022-10-24T12:14:35;5.70;;;1.73;;
33716;SDS011;20046;50.746;7.072;2022-10-24T12:19:59;10.25;;;1.67;;
33716;SDS011;20046;50.746;7.072;2022-10-24T12:22:36;9.18;;;1.40;;
33716;SDS011;20046;50.746;7.072;2022-10-24T12:27:50;7.78;;;2.08;;
33716;SDS011;20046;50.746;7.072;2022-10-24T12:30:18;9.67;;;1.70;;
33716;SDS011;20046;50.746;7.072;2022-10-24T12:32:46;8.95;;;1.55;;
33716;SDS011;20046;50.746;7.072;2022-10-24T12:37:58;10.20;;;1.70;;
33716;SDS011;20046;50.746;7.072;2022-10-24T12:45:39;10.10;;;1.60;;
33716;SDS011;20046;50.746;7.072;2022-10-24T12:53:14;9.85;;;1.95;;
33716;SDS011;20046;50.746;7.072;2022-10-24T12:58:27;7.50;;;1.50;;
33716;SDS011;20046;50.746;7.072;2022-10-24T13:00:57;7.40;;;1.73;;
33716;SDS011;20046;50.746;7.072;2022-10-24T13:03:36;7.22;;;1.90;;
33716;SDS011;20046;50.746;7.072;2022-10-24T13:06:09;8.63;;;2.13;;
33716;SDS011;20046;50.746;7.072;2022-10-24T13:08:50;8.85;;;1.88;;
33716;SDS011;20046;50.746;7.072;2022-10-24T13:14:40;7.38;;;1.80;;
33716;SDS011;20046;50.746;7.072;2022-10-24T13:17:38;7.88;;;1.55;;
33716;SDS011;20046;50.746;7.072;2022-10-24T13:20:17;9.05;;;1.45;;
33716;SDS011;20046;50.746;7.072;2022-10-24T13:25:28;9.23;;;1.60;;
33716;SDS011;20046;50.746;7.072;2022-10-24T13:30:49;6.32;;;1.67;;
33716;SDS011;20046;50.746;7.072;2022-10-24T13:38:35;10.77;;;1.88;;
33716;SDS011;20046;50.746;7.072;2022-10-24T13:41:06;8.13;;;1.63;;
33716;SDS011;20046;50.746;7.072;2022-10-24T13:43:36;5.20;;;1.05;;
33716;SDS011;20046;50.746;7.072;2022-10-24T13:46:09;8.68;;;1.80;;
33716;SDS011;20046;50.746;7.072;2022-10-24T13:48:44;7.07;;;1.50;;
33716;SDS011;20046;50.746;7.072;2022-10-24T13:51:15;7.90;;;1.73;;
33716;SDS011;20046;50.746;7.072;2022-10-24T13:56:39;7.85;;;1.65;;
33716;SDS011;20046;50.746;7.072;2022-10-24T13:59:27;8.63;;;1.92;;
33716;SDS011;20046;50.746;7.072;2022-10-24T14:01:54;7.80;;;1.63;;
33716;SDS011;20046;50.746;7.072;2022-10-24T14:04:22;4.55;;;1.27;;
33716;SDS011;20046;50.746;7.072;2022-10-24T14:06:48;7.13;;;1.60;;
33716;SDS011;20046;50.746;7.072;2022-10-24T14:09:14;12.43;;;1.77;;
33716;SDS011;20046;50.746;7.072;2022-10-24T14:11:43;8.70;;;1.35;;
33716;SDS011;20046;50.746;7.072;2022-10-24T14:14:21;8.35;;;1.20;;
33716;SDS011;20046;50.746;7.072;2022-10-24T14:17:04;6.57;;;1.40;;
33716;SDS011;20046;50.746;7.072;2022-10-24T14:19:32;7.43;;;1.17;;
33716;SDS011;20046;50.746;7.072;2022-10-24T14:22:00;8.93;;;1.40;;
33716;SDS011;20046;50.746;7.072;2022-10-24T14:24:29;7.78;;;1.40;;
33716;SDS011;20046;50.746;7.072;2022-10-24T14:26:56;9.23;;;1.50;;
33716;SDS011;20046;50.746;7.072;2022-10-24T14:29:29;13.55;;;1.85;;
33716;SDS011;20046;50.746;7.072;2022-10-24T14:34:23;9.52;;;1.48;;
33716;SDS011;20046;50.746;7.072;2022-10-24T14:36:49;10.35;;;1.67;;
33716;SDS011;20046;50.746;7.072;2022-10-24T14:39:16;9.32;;;2.28;;
33716;SDS011;20046;50.746;7.072;2022-10-24T14:41:48;11.48;;;2.17;;
33716;SDS011;20046;50.746;7.072;2022-10-24T14:44:18;20.45;;;2.25;;
33716;SDS011;20046;50.746;7.072;2022-10-24T14:46:47;9.20;;;1.90;;
33716;SDS011;20046;50.746;7.072;2022-10-24T14:52:37;6.80;;;1.55;;
33716;SDS011;20046;50.746;7.072;2022-10-24T14:54:38;7.85;;;1.75;;
33716;SDS011;20046;50.746;7.072;2022-10-24T14:57:13;12.43;;;2.22;;
33716;SDS011;20046;50.746;7.072;2022-10-24T14:59:43;7.47;;;1.70;;
33716;SDS011;20046;50.746;7.072;2022-10-24T15:07:44;9.70;;;1.88;;
33716;SDS011;20046;50.746;7.072;2022-10-24T15:17:43;6.88;;;1.55;;
33716;SDS011;20046;50.746;7.072;2022-10-24T15:20:11;8.90;;;1.50;;
33716;SDS011;20046;50.746;7.072;2022-10-24T15:22:44;8.02;;;1.80;;
33716;SDS011;20046;50.746;7.072;2022-10-24T15:25:19;9.45;;;1.55;;
33716;SDS011;20046;50.746;7.072;2022-10-24T15:27:48;13.75;;;2.15;;
33716;SDS011;20046;50.746;7.072;2022-10-24T15:32:45;6.15;;;1.40;;
33716;SDS011;20046;50.746;7.072;2022-10-24T15:35:12;12.02;;;2.17;;
33716;SDS011;20046;50.746;7.072;2022-10-24T15:37:38;7.82;;;1.83;;
33716;SDS011;20046;50.746;7.072;2022-10-24T15:40:18;6.15;;;1.52;;
33716;SDS011;20046;50.746;7.072;2022-10-24T15:42:46;11.27;;;1.35;;
33716;SDS011;20046;50.746;7.072;2022-10-24T15:45:12;10.90;;;1.50;;
33716;SDS011;20046;50.746;7.072;2022-10-24T15:47:39;9.43;;;1.65;;
33716;SDS011;20046;50.746;7.072;2022-10-24T15:50:04;7.20;;;1.55;;
33716;SDS011;20046;50.746;7.072;2022-10-24T15:52:31;11.30;;;1.90;;
33716;SDS011;20046;50.746;7.072;2022-10-24T15:54:57;5.65;;;1.38;;
33716;SDS011;20046;50.746;7.072;2022-10-24T15:57:24;12.07;;;1.85;;
33716;SDS011;20046;50.746;7.072;2022-10-24T15:59:50;6.70;;;1.48;;
33716;SDS011;20046;50.746;7.072;2022-10-24T16:02:18;9.82;;;2.58;;
33716;SDS011;20046;50.746;7.072;2022-10-24T16:04:46;6.38;;;1.42;;
33716;SDS011;20046;50.746;7.072;2022-10-24T16:07:12;12.27;;;1.98;;
33716;SDS011;20046;50.746;7.072;2022-10-24T16:09:38;7.28;;;1.50;;
33716;SDS011;20046;50.746;7.072;2022-10-24T16:12:04;10.82;;;1.77;;
33716;SDS011;20046;50.746;7.072;2022-10-24T16:14:29;14.27;;;2.10;;
33716;SDS011;20046;50.746;7.072;2022-10-24T16:16:56;8.93;;;2.13;;
33716;SDS011;20046;50.746;7.072;2022-10-24T16:19:22;8.60;;;2.20;;
33716;SDS011;20046;50.746;7.072;2022-10-24T16:21:50;11.85;;;1.75;;
33716;SDS011;20046;50.746;7.072;2022-10-24T16:24:16;14.15;;;2.00;;
33716;SDS011;20046;50.746;7.072;2022-10-24T16:26:42;12.02;;;1.88;;
33716;SDS011;20046;50.746;7.072;2022-10-24T16:29:08;9.55;;;2.15;;
33716;SDS011;20046;50.746;7.072;2022-10-24T16:31:33;16.70;;;2.22;;
33716;SDS011;20046;50.746;7.072;2022-10-24T16:33:59;9.32;;;1.92;;
33716;SDS011;20046;50.746;7.072;2022-10-24T16:36:25;4.90;;;1.65;;
33716;SDS011;20046;50.746;7.072;2022-10-24T16:38:51;12.23;;;1.67;;
33716;SDS011;20046;50.746;7.072;2022-10-24T16:41:18;12.73;;;2.30;;
33716;SDS011;20046;50.746;7.072;2022-10-24T16:43:48;11.93;;;2.38;;
33716;SDS011;20046;50.746;7.072;2022-10-24T16:46:15;12.98;;;2.28;;
33716;SDS011;20046;50.746;7.072;2022-10-24T16:48:42;11.10;;;2.40;;
33716;SDS011;20046;50.746;7.072;2022-10-24T16:51:12;14.32;;;2.28;;
33716;SDS011;20046;50.746;7.072;2022-10-24T16:53:40;13.27;;;1.88;;
33716;SDS011;20046;50.746;7.072;2022-10-24T16:56:10;9.75;;;2.05;;
33716;SDS011;20046;50.746;7.072;2022-10-24T16:58:37;12.05;;;2.90;;
33716;SDS011;20046;50.746;7.072;2022-10-24T17:01:04;10.73;;;1.98;;
33716;SDS011;20046;50.746;7.072;2022-10-24T17:03:37;13.30;;;2.28;;
33716;SDS011;20046;50.746;7.072;2022-10-24T17:06:04;13.30;;;2.65;;
33716;SDS011;20046;50.746;7.072;2022-10-24T17:08:30;8.85;;;2.40;;
33716;SDS011;20046;50.746;7.072;2022-10-24T17:10:56;10.80;;;2.53;;
33716;SDS011;20046;50.746;7.072;2022-10-24T17:13:22;10.18;;;2.88;;
33716;SDS011;20046;50.746;7.072;2022-10-24T17:15:49;14.65;;;2.60;;
33716;SDS011;20046;50.746;7.072;2022-10-24T17:18:14;15.18;;;4.38;;